createdAt,value
2022-11-24T00:01:13.034Z,16.15
2022-11-24T00:05:29.134Z,15.02
2022-11-24T00:09:45.369Z,15.77
2022-11-24T00:14:02.380Z,15.27
2022-11-24T00:18:18.533Z,17.25
2022-11-24T00:22:34.659Z,17.02
2022-11-24T00:26:50.730Z,16.27
2022-11-24T00:31:19.799Z,16.67
2022-11-24T00:35:35.914Z,16.12
2022-11-24T00:39:52.065Z,16.75
2022-11-24T00:44:08.403Z,15.98
2022-11-24T00:48:24.557Z,17.67
2022-11-24T00:52:40.649Z,15.90
2022-11-24T00:56:56.729Z,15.05
2022-11-24T01:01:16.545Z,15.88
2022-11-24T01:05:36.002Z,15.45
2022-11-24T01:09:52.068Z,15.80
2022-11-24T01:14:08.220Z,16.67
2022-11-24T01:18:24.442Z,16.33
2022-11-24T01:22:41.845Z,15.88
2022-11-24T01:26:57.987Z,16.83
2022-11-24T01:31:14.424Z,16.10
2022-11-24T01:35:30.698Z,15.38
2022-11-24T01:39:46.783Z,17.83
2022-11-24T01:44:20.042Z,18.62
2022-11-24T01:48:41.404Z,19.48
2022-11-24T01:52:58.735Z,22.40
2022-11-24T01:57:48.409Z,24.58
2022-11-24T02:02:04.972Z,26.77
2022-11-24T02:06:27.714Z,28.25
2022-11-24T02:10:45.683Z,28.87
2022-11-24T02:15:02.013Z,26.77
2022-11-24T02:19:41.452Z,28.52
2022-11-24T02:25:02.599Z,28.60
2022-11-24T02:29:20.164Z,26.35
2022-11-24T02:33:36.981Z,28.55
2022-11-24T02:37:53.071Z,27.23
2022-11-24T02:42:13.232Z,28.12
2022-11-24T02:46:29.553Z,29.45
2022-11-24T02:50:45.750Z,30.55
2022-11-24T02:55:01.896Z,31.42
2022-11-24T02:59:18.132Z,31.37
2022-11-24T03:03:34.445Z,30.80
2022-11-24T03:07:50.684Z,29.67
2022-11-24T03:12:07.109Z,31.37
2022-11-24T03:16:23.418Z,28.50
2022-11-24T03:20:39.672Z,31.70
2022-11-24T03:24:55.841Z,29.33
2022-11-24T03:29:12.062Z,32.13
2022-11-24T03:33:28.255Z,28.08
2022-11-24T03:37:44.358Z,28.45
2022-11-24T03:42:00.503Z,30.42
2022-11-24T03:46:16.656Z,30.62
2022-11-24T03:50:32.797Z,29.33
2022-11-24T03:54:48.968Z,32.67
2022-11-24T03:59:05.083Z,34.90
2022-11-24T04:03:21.354Z,30.37
2022-11-24T04:07:37.598Z,33.35
2022-11-24T04:12:12.472Z,32.83
2022-11-24T04:16:28.790Z,34.13
2022-11-24T04:20:45.099Z,32.35
2022-11-24T04:25:01.236Z,31.70
2022-11-24T04:29:17.377Z,33.72
2022-11-24T04:33:33.525Z,31.17
2022-11-24T04:37:49.654Z,32.45
2022-11-24T04:42:06.543Z,32.25
2022-11-24T04:46:22.727Z,31.90
2022-11-24T04:50:40.165Z,29.48
2022-11-24T04:54:56.233Z,28.15
2022-11-24T04:59:15.265Z,27.50
2022-11-24T05:03:31.416Z,29.63
2022-11-24T05:07:47.541Z,30.90
2022-11-24T05:12:04.050Z,28.25
2022-11-24T05:16:20.377Z,29.10
2022-11-24T05:20:36.813Z,28.98
2022-11-24T05:24:52.938Z,29.25
2022-11-24T05:29:09.074Z,25.67
2022-11-24T05:33:25.320Z,26.10
2022-11-24T05:37:41.468Z,28.12
2022-11-24T05:41:57.615Z,27.67
2022-11-24T05:46:13.859Z,28.73
2022-11-24T05:50:30.040Z,27.10
2022-11-24T05:54:46.205Z,24.55
2022-11-24T05:59:06.677Z,25.42
2022-11-24T06:03:25.672Z,23.30
2022-11-24T06:07:42.021Z,26.37
2022-11-24T06:12:01.300Z,26.35
2022-11-24T06:16:17.543Z,26.35
2022-11-24T06:20:33.827Z,26.00
2022-11-24T06:24:51.393Z,24.08
2022-11-24T06:29:07.648Z,24.15
2022-11-24T06:33:23.771Z,20.95
2022-11-24T06:37:39.937Z,22.05
2022-11-24T06:41:55.993Z,21.75
2022-11-24T06:46:13.202Z,21.05
2022-11-24T06:50:33.407Z,24.60
2022-11-24T06:54:49.959Z,19.55
2022-11-24T06:59:06.509Z,24.20
2022-11-24T07:03:22.942Z,25.08
2022-11-24T07:07:39.207Z,25.67
2022-11-24T07:11:56.904Z,24.95
2022-11-24T07:16:13.174Z,25.48
2022-11-24T07:20:29.498Z,27.67
2022-11-24T07:24:45.639Z,26.33
2022-11-24T07:29:03.742Z,25.17
2022-11-24T07:33:25.113Z,24.92
2022-11-24T07:37:41.349Z,25.52
2022-11-24T07:41:58.603Z,26.92
2022-11-24T07:46:17.000Z,25.62
2022-11-24T07:50:33.188Z,25.00
2022-11-24T07:54:49.349Z,26.60
2022-11-24T07:59:05.861Z,27.52
2022-11-24T08:03:22.440Z,24.35
2022-11-24T08:07:39.536Z,28.95
2022-11-24T08:11:55.785Z,23.02
2022-11-24T08:16:15.192Z,27.35
2022-11-24T08:20:31.616Z,22.10
2022-11-24T08:24:49.133Z,19.95
2022-11-24T08:29:05.348Z,27.02
2022-11-24T08:33:21.480Z,20.02
2022-11-24T08:37:37.559Z,26.58
2022-11-24T08:41:53.739Z,25.77
2022-11-24T08:46:17.330Z,26.08
2022-11-24T08:50:35.768Z,25.65
2022-11-24T08:54:51.921Z,26.77
2022-11-24T08:59:10.308Z,26.55
2022-11-24T09:03:26.450Z,27.17
2022-11-24T09:07:42.596Z,25.12
2022-11-24T09:11:58.722Z,25.67
2022-11-24T09:16:20.435Z,28.17
2022-11-24T09:20:36.654Z,25.33
2022-11-24T09:24:52.875Z,25.92
2022-11-24T09:29:10.268Z,25.70
2022-11-24T09:33:26.397Z,26.87
2022-11-24T09:37:44.912Z,24.63
2022-11-24T09:42:13.153Z,25.10
2022-11-24T09:46:57.487Z,25.35
2022-11-24T09:51:15.261Z,22.87
2022-11-24T09:55:49.202Z,23.00
2022-11-24T10:00:12.544Z,22.95
2022-11-24T10:04:43.905Z,24.33
2022-11-24T10:09:24.032Z,24.20
2022-11-24T10:14:03.241Z,23.77
2022-11-24T10:18:37.576Z,23.55
2022-11-24T10:23:21.392Z,24.12
2022-11-24T10:32:00.813Z,23.17
2022-11-24T10:37:04.320Z,22.37
2022-11-24T10:41:39.317Z,22.13
2022-11-24T10:46:19.217Z,22.70
2022-11-24T10:50:40.991Z,20.10
2022-11-24T10:55:02.370Z,21.67
2022-11-24T10:59:24.609Z,20.15
2022-11-24T11:03:55.715Z,18.77
2022-11-24T11:08:14.855Z,20.00
2022-11-24T11:12:46.345Z,18.75
2022-11-24T11:17:02.879Z,19.30
2022-11-24T11:21:32.114Z,17.00
2022-11-24T11:25:48.630Z,17.45
2022-11-24T11:34:55.477Z,15.32
2022-11-24T11:39:48.845Z,15.57
2022-11-24T11:44:21.758Z,13.52
2022-11-24T11:48:43.640Z,15.25
2022-11-24T11:53:18.801Z,15.48
2022-11-24T11:57:55.715Z,15.15
2022-11-24T12:02:30.195Z,15.68
2022-11-24T12:07:14.329Z,14.23
2022-11-24T12:11:43.632Z,13.38
2022-11-24T12:16:19.025Z,14.80
2022-11-24T12:20:46.321Z,15.90
2022-11-24T12:25:20.973Z,16.73
2022-11-24T12:30:05.471Z,14.73
2022-11-24T12:34:48.611Z,14.48
2022-11-24T12:39:28.508Z,18.35
2022-11-24T12:43:52.174Z,15.65
2022-11-24T12:48:30.976Z,14.80
2022-11-24T12:52:58.846Z,15.30
2022-11-24T12:57:44.885Z,15.93
2022-11-24T13:02:24.741Z,15.18
2022-11-24T13:06:49.895Z,14.85
2022-11-24T13:11:24.440Z,14.95
2022-11-24T13:20:38.407Z,14.10
2022-11-24T13:25:13.381Z,14.15
2022-11-24T13:29:36.602Z,15.02
2022-11-24T13:33:52.818Z,13.90
2022-11-24T13:38:46.139Z,14.45
2022-11-24T13:43:02.766Z,13.57
2022-11-24T13:47:37.667Z,14.87
2022-11-24T13:51:57.651Z,14.93
2022-11-24T13:56:13.913Z,14.40
2022-11-24T14:00:58.478Z,14.55
2022-11-24T14:05:19.837Z,14.68
2022-11-24T14:09:53.923Z,14.75
2022-11-24T14:14:21.036Z,14.52
2022-11-24T14:18:39.680Z,15.65
2022-11-24T14:22:57.821Z,14.98
2022-11-24T14:27:16.987Z,14.68
2022-11-24T14:31:33.386Z,15.52
2022-11-24T14:35:51.264Z,15.05
2022-11-24T14:40:37.916Z,14.40
2022-11-24T14:45:03.947Z,15.23
2022-11-24T14:49:23.951Z,14.52
2022-11-24T14:53:47.574Z,13.85
2022-11-24T14:58:19.356Z,14.18
2022-11-24T15:03:16.236Z,13.98
2022-11-24T15:07:34.603Z,14.00
2022-11-24T15:11:51.233Z,14.98
2022-11-24T15:16:19.367Z,14.87
2022-11-24T15:20:44.772Z,14.55
2022-11-24T15:25:01.341Z,14.18
2022-11-24T15:29:17.642Z,14.25
2022-11-24T15:33:35.007Z,15.05
2022-11-24T15:37:51.435Z,15.30
2022-11-24T15:42:09.260Z,14.87
2022-11-24T15:46:28.960Z,16.05
2022-11-24T15:50:46.242Z,15.68
2022-11-24T15:55:02.459Z,16.75
2022-11-24T15:59:21.276Z,15.55
2022-11-24T16:03:52.704Z,17.55
2022-11-24T16:08:16.211Z,17.85
2022-11-24T16:12:32.808Z,17.08
2022-11-24T16:16:49.458Z,16.83
2022-11-24T16:21:07.449Z,17.75
2022-11-24T16:25:23.990Z,17.02
2022-11-24T16:29:40.641Z,15.73
2022-11-24T16:33:57.372Z,15.55
2022-11-24T16:38:20.249Z,16.20
2022-11-24T16:42:36.447Z,16.45
2022-11-24T16:46:52.531Z,16.15
2022-11-24T16:51:10.296Z,16.10
2022-11-24T16:55:26.657Z,15.20
2022-11-24T16:59:46.428Z,15.40
2022-11-24T17:04:03.261Z,15.15
2022-11-24T17:08:20.946Z,15.70
2022-11-24T17:12:37.850Z,15.70
2022-11-24T17:16:54.117Z,15.30
2022-11-24T17:21:17.553Z,15.52
2022-11-24T17:25:34.173Z,14.90
2022-11-24T17:29:50.424Z,14.60
2022-11-24T17:34:08.445Z,14.13
2022-11-24T17:38:25.037Z,15.38
2022-11-24T17:42:41.544Z,13.60
2022-11-24T17:46:59.169Z,13.73
2022-11-24T17:51:18.231Z,13.80
2022-11-24T17:55:34.956Z,14.05
2022-11-24T17:59:52.204Z,14.13
2022-11-24T18:04:08.418Z,13.60
2022-11-24T18:08:25.068Z,14.87
2022-11-24T18:12:41.239Z,13.82
2022-11-24T18:16:57.578Z,14.77
2022-11-24T18:21:16.152Z,14.70
2022-11-24T18:25:33.397Z,13.52
2022-11-24T18:29:54.825Z,14.23
2022-11-24T18:34:12.291Z,16.00
2022-11-24T18:38:29.195Z,14.60
2022-11-24T18:42:45.445Z,14.87
2022-11-24T18:47:01.637Z,15.77
2022-11-24T18:51:18.846Z,15.60
2022-11-24T18:55:35.003Z,15.90
2022-11-24T18:59:51.341Z,14.90
2022-11-24T19:04:07.598Z,15.50
2022-11-24T19:08:23.726Z,15.90
2022-11-24T19:12:39.904Z,17.52
2022-11-24T19:16:56.181Z,17.85
2022-11-24T19:21:12.491Z,21.02
2022-11-24T19:25:28.640Z,21.95
2022-11-24T19:29:44.912Z,19.33
2022-11-24T19:34:03.214Z,19.65
2022-11-24T19:38:19.476Z,19.70
2022-11-24T19:42:35.826Z,18.73
2022-11-24T19:46:52.429Z,17.92
2022-11-24T19:51:11.715Z,17.05
2022-11-24T19:55:27.871Z,19.45
2022-11-24T19:59:45.902Z,19.98
2022-11-24T20:04:04.599Z,19.10
2022-11-24T20:08:20.794Z,19.58
2022-11-24T20:12:36.989Z,18.77
2022-11-24T20:16:53.174Z,19.05
2022-11-24T20:21:11.909Z,17.95
2022-11-24T20:25:28.106Z,17.25
2022-11-24T20:29:46.955Z,18.77
2022-11-24T20:34:04.828Z,18.33
2022-11-24T20:38:21.079Z,18.35
2022-11-24T20:42:37.687Z,19.50
2022-11-24T20:46:56.982Z,20.10
2022-11-24T20:51:24.941Z,18.98
2022-11-24T20:55:41.158Z,19.37
2022-11-24T20:59:57.356Z,19.15
2022-11-24T21:04:17.315Z,19.33
2022-11-24T21:08:37.438Z,18.48
2022-11-24T21:12:53.567Z,18.00
2022-11-24T21:17:10.035Z,17.83
2022-11-24T21:21:28.469Z,16.70
2022-11-24T21:25:44.837Z,15.75
2022-11-24T21:30:01.106Z,17.10
2022-11-24T21:34:19.141Z,17.23
2022-11-24T21:38:35.497Z,16.12
2022-11-24T21:42:51.714Z,17.02
2022-11-24T21:47:07.919Z,17.55
2022-11-24T21:51:24.198Z,17.12
2022-11-24T21:55:40.411Z,16.65
2022-11-24T21:59:56.591Z,16.35
2022-11-24T22:04:12.781Z,16.45
2022-11-24T22:08:30.315Z,14.80
2022-11-24T22:12:46.535Z,15.82
2022-11-24T22:17:02.615Z,16.67
2022-11-24T22:21:30.955Z,15.32
2022-11-24T22:25:47.085Z,15.32
2022-11-24T22:30:06.139Z,15.68
2022-11-24T22:34:22.229Z,14.85
2022-11-24T22:38:38.618Z,15.82
2022-11-24T22:42:54.995Z,15.55
2022-11-24T22:47:11.162Z,15.52
2022-11-24T22:51:38.767Z,16.42
2022-11-24T22:55:54.956Z,14.95
2022-11-24T23:00:11.587Z,16.25
2022-11-24T23:04:27.781Z,15.43
2022-11-24T23:08:44.532Z,15.18
2022-11-24T23:13:00.629Z,16.17
2022-11-24T23:17:16.760Z,15.13
2022-11-24T23:21:35.131Z,14.87
2022-11-24T23:25:51.346Z,14.98
2022-11-24T23:30:08.184Z,15.23
2022-11-24T23:34:24.365Z,15.57
2022-11-24T23:38:40.942Z,16.15
2022-11-24T23:42:58.110Z,16.12
2022-11-24T23:47:14.239Z,18.15
2022-11-24T23:51:32.232Z,16.12
2022-11-24T23:55:57.181Z,16.55
